Time;durP1;ratioP1;P1;durP2;ratioP2;P2;SDS_P1;SDS_P2;PMS_P1;PMS_P2;Temp;Humidity;BMP_temperature;BMP_pressure;BME280_temperature;BME280_humidity;BME280_pressure;Samples;Min_cycle;Max_cycle;Signal;HPM_P1;HPM_P2
2021/03/28 00:00:32;;;;;;;5.03;1.13;;;;;;;8.50;72.36;99374.00;5010757;28;20234;-68
2021/03/28 00:03:02;;;;;;;3.53;1.20;;;;;;;8.47;72.98;99371.63;5009011;28;20238;-68
2021/03/28 00:05:32;;;;;;;3.97;1.30;;;;;;;8.38;72.90;99377.88;5009591;28;20220;-68
2021/03/28 00:08:01;;;;;;;3.73;1.07;;;;;;;8.37;73.62;99378.88;5011580;28;20214;-68
2021/03/28 00:10:32;;;;;;;10.13;1.57;;;;;;;8.31;73.62;99374.16;5010612;28;20693;-68
2021/03/28 00:13:06;;;;;;;5.80;1.47;;;;;;;8.28;74.52;99374.47;5006241;28;20242;-68
2021/03/28 00:15:35;;;;;;;3.10;1.00;;;;;;;8.21;75.27;99376.06;5006021;28;20214;-68
2021/03/28 00:18:16;;;;;;;4.97;1.87;;;;;;;8.21;76.12;99376.06;5007105;28;20206;-68
2021/03/28 00:20:44;;;;;;;4.70;1.33;;;;;;;8.04;77.72;99368.91;5007818;28;20228;-68
2021/03/28 00:23:16;;;;;;;4.57;1.17;;;;;;;7.97;78.22;99373.16;5009211;28;20230;-68
2021/03/28 00:25:48;;;;;;;3.20;1.23;;;;;;;7.95;78.45;99374.28;5012972;28;20232;-68
2021/03/28 00:28:25;;;;;;;3.97;1.30;;;;;;;7.90;79.25;99369.44;5015754;28;20259;-68
2021/03/28 00:30:53;;;;;;;3.70;1.33;;;;;;;7.91;78.67;99368.44;5018549;28;20197;-68
2021/03/28 00:33:24;;;;;;;2.57;0.90;;;;;;;7.85;79.77;99369.06;5016376;28;20233;-68
2021/03/28 00:35:55;;;;;;;4.67;1.17;;;;;;;7.73;80.93;99380.88;5020637;28;20208;-68
2021/03/28 00:38:25;;;;;;;3.40;1.10;;;;;;;7.70;80.75;99375.88;5014818;28;20210;-68
2021/03/28 00:41:12;;;;;;;5.30;1.40;;;;;;;7.77;80.31;99379.56;5023113;28;20718;-68
2021/03/28 00:43:44;;;;;;;2.80;1.27;;;;;;;7.73;80.52;99380.03;5010446;28;20225;-68
2021/03/28 00:46:40;;;;;;;4.47;1.20;;;;;;;7.70;80.28;99377.66;5009908;28;20216;-68
2021/03/28 00:49:10;;;;;;;7.47;1.60;;;;;;;7.73;80.03;99378.22;5016890;28;20209;-68
2021/03/28 00:51:45;;;;;;;8.67;1.50;;;;;;;7.81;79.89;99378.31;5012808;28;20220;-68
2021/03/28 00:54:13;;;;;;;4.10;1.30;;;;;;;7.77;79.40;99374.25;5009770;28;20224;-68
2021/03/28 00:56:43;;;;;;;3.20;1.03;;;;;;;7.82;78.85;99372.00;5012383;28;20208;-68
2021/03/28 00:59:17;;;;;;;3.63;1.10;;;;;;;7.83;77.96;99376.34;5012388;28;20210;-68
2021/03/28 01:02:06;;;;;;;5.70;1.17;;;;;;;7.89;77.45;99377.53;5013587;28;20678;-68
2021/03/28 01:04:53;;;;;;;6.10;1.67;;;;;;;7.84;78.04;99372.69;5014486;28;20214;-68
2021/03/28 01:07:39;;;;;;;2.70;1.40;;;;;;;7.83;77.63;99376.34;5002070;28;20211;-68
2021/03/28 01:10:53;;;;;;;6.57;1.33;;;;;;;7.95;77.08;99376.94;5018505;28;20251;-68
2021/03/28 01:13:57;;;;;;;3.87;1.40;;;;;;;7.92;76.94;99367.44;5009864;28;20295;-68
2021/03/28 01:17:10;;;;;;;5.07;1.07;;;;;;;8.01;76.67;99374.53;5006126;28;20213;-68
2021/03/28 01:20:13;;;;;;;3.97;1.43;;;;;;;7.94;76.64;99376.13;5013898;28;20681;-68
2021/03/28 01:22:46;;;;;;;6.97;1.17;;;;;;;8.01;75.36;99368.38;5011887;28;20222;-68
2021/03/28 01:25:37;;;;;;;3.83;1.20;;;;;;;7.91;76.26;99367.63;5015583;28;20220;-68
2021/03/28 01:28:16;;;;;;;9.50;1.20;;;;;;;7.98;75.39;99363.34;5011016;28;20209;-68
2021/03/28 01:30:45;;;;;;;3.53;0.93;;;;;;;7.97;75.36;99367.00;5010380;28;20686;-68
2021/03/28 01:33:15;;;;;;;6.53;1.03;;;;;;;7.98;75.44;99358.88;5012405;28;20236;-68
2021/03/28 01:35:53;;;;;;;3.37;1.20;;;;;;;7.92;75.33;99359.47;5011059;28;20205;-69
2021/03/28 01:38:23;;;;;;;4.70;1.10;;;;;;;7.91;75.52;99359.66;5013378;28;20206;-68
2021/03/28 01:40:53;;;;;;;2.17;1.10;;;;;;;7.88;75.60;99367.91;5012107;28;20279;-68
2021/03/28 01:43:28;;;;;;;3.30;1.27;;;;;;;7.82;76.51;99363.19;5011975;28;20225;-68
2021/03/28 01:46:03;;;;;;;3.70;1.10;;;;;;;7.86;76.37;99364.59;5011459;28;20255;-68
2021/03/28 01:48:44;;;;;;;3.60;1.27;;;;;;;7.79;76.29;99359.03;5011790;28;20928;-68
2021/03/28 01:51:47;;;;;;;6.37;1.23;;;;;;;7.88;76.47;99366.09;5011674;28;20626;-68
2021/03/28 01:54:20;;;;;;;3.43;1.20;;;;;;;7.80;76.61;99367.81;5008219;28;20272;-68
2021/03/28 01:56:52;;;;;;;2.63;1.00;;;;;;;7.81;77.05;99365.00;5014671;28;20288;-68
2021/03/28 01:59:35;;;;;;;6.37;2.20;;;;;;;7.80;76.71;99363.34;5011682;28;20232;-68
2021/03/28 02:02:06;;;;;;;3.50;1.00;;;;;;;7.79;76.77;99371.47;5011617;28;20234;-68
2021/03/28 02:04:47;;;;;;;7.00;1.43;;;;;;;7.75;76.88;99373.59;5009835;28;20223;-68
2021/03/28 02:07:21;;;;;;;3.73;1.33;;;;;;;7.79;77.05;99382.94;5012691;28;20209;-68
2021/03/28 02:09:54;;;;;;;3.60;1.23;;;;;;;7.80;76.81;99371.31;5011342;28;20204;-68
2021/03/28 02:12:33;;;;;;;5.57;1.17;;;;;;;7.74;77.52;99371.94;4994455;28;547091;-68
2021/03/28 02:15:33;;;;;;;4.13;0.93;;;;;;;7.89;76.08;99375.75;5014795;28;20208;-68
2021/03/28 02:18:15;;;;;;;3.00;1.30;;;;;;;7.86;76.23;99368.06;5011755;28;21617;-68
2021/03/28 02:20:50;;;;;;;5.47;1.23;;;;;;;7.82;76.82;99364.03;5012181;28;20225;-68
2021/03/28 02:23:30;;;;;;;4.03;1.00;;;;;;;7.79;76.77;99358.19;5014778;28;20309;-68
2021/03/28 02:26:02;;;;;;;5.60;1.07;;;;;;;7.83;76.91;99363.06;5011945;28;20559;-68
2021/03/28 02:28:45;;;;;;;5.97;1.30;;;;;;;7.92;76.29;99366.63;5015241;28;20204;-68
2021/03/28 02:31:22;;;;;;;7.73;1.37;;;;;;;7.86;76.11;99364.59;5012477;28;20219;-68
2021/03/28 02:33:52;;;;;;;3.60;1.13;;;;;;;7.89;76.16;99365.09;5013741;28;20306;-68
2021/03/28 02:36:24;;;;;;;4.20;1.07;;;;;;;7.84;76.17;99364.72;5012926;28;20271;-68
2021/03/28 02:39:12;;;;;;;5.03;1.07;;;;;;;8.00;75.80;99364.03;5013295;28;20578;-68
2021/03/28 02:41:51;;;;;;;2.90;1.00;;;;;;;8.06;74.76;99366.06;5012324;28;20224;-68
2021/03/28 02:44:31;;;;;;;1.23;0.77;;;;;;;8.12;74.12;99370.81;5011275;28;20213;-68
2021/03/28 02:47:13;;;;;;;1.50;0.93;;;;;;;8.10;74.21;99364.78;5017731;28;20250;-68
2021/03/28 02:50:15;;;;;;;5.53;1.27;;;;;;;8.08;74.35;99372.91;5013031;28;20209;-69
2021/03/28 02:53:01;;;;;;;3.23;0.83;;;;;;;8.13;74.23;99375.13;5012588;28;20226;-67
2021/03/28 02:56:02;;;;;;;6.03;1.37;;;;;;;8.25;73.65;99372.13;5014294;28;20209;-68
2021/03/28 02:58:39;;;;;;;4.27;0.97;;;;;;;8.29;72.75;99375.31;5007044;28;20300;-68
2021/03/28 03:01:22;;;;;;;3.53;1.17;;;;;;;8.29;72.37;99373.50;5011834;28;20229;-68
2021/03/28 03:04:22;;;;;;;3.83;1.20;;;;;;;8.24;72.11;99373.13;5011270;28;20229;-68
2021/03/28 03:07:03;;;;;;;4.73;0.80;;;;;;;8.26;71.90;99378.25;5010436;28;20220;-68
2021/03/28 03:09:39;;;;;;;3.07;1.10;;;;;;;8.21;72.27;99370.75;5010980;28;20255;-67
2021/03/28 03:12:18;;;;;;;4.37;1.43;;;;;;;8.30;71.24;99374.31;5009903;28;20245;-69
2021/03/28 03:15:15;;;;;;;10.20;1.17;;;;;;;8.28;71.46;99376.31;5009038;28;20264;-69
2021/03/28 03:18:24;;;;;;;5.23;1.10;;;;;;;8.26;71.64;99371.13;5006144;28;20213;-69
2021/03/28 03:21:31;;;;;;;3.90;1.20;;;;;;;8.32;71.06;99373.16;4938581;28;20604;-68
2021/03/28 03:24:21;;;;;;;4.50;1.23;;;;;;;8.27;71.81;99370.13;5009410;28;20221;-69
2021/03/28 03:27:18;;;;;;;2.57;1.07;;;;;;;8.22;71.58;99367.09;5009643;28;20202;-68
2021/03/28 03:30:07;;;;;;;3.63;0.90;;;;;;;8.24;71.18;99369.59;5011082;28;20206;-69
2021/03/28 03:33:13;;;;;;;5.03;1.27;;;;;;;8.26;71.21;99372.94;5009822;28;20750;-68
2021/03/28 03:35:47;;;;;;;5.10;1.30;;;;;;;8.25;70.91;99371.28;5013346;28;20219;-68
2021/03/28 03:38:43;;;;;;;1.77;0.97;;;;;;;8.29;71.12;99372.66;5012616;28;20283;-69
2021/03/28 03:41:54;;;;;;;3.47;0.97;;;;;;;8.24;71.90;99377.59;5012019;28;20227;-68
2021/03/28 03:44:32;;;;;;;4.37;1.10;;;;;;;8.23;72.03;99370.59;4995152;28;20213;-68
2021/03/28 03:47:13;;;;;;;4.47;1.90;;;;;;;8.21;71.79;99373.41;5009722;28;20230;-69
2021/03/28 03:49:54;;;;;;;5.10;1.20;;;;;;;8.13;72.05;99369.81;5013567;28;20202;-69
2021/03/28 03:52:31;;;;;;;6.30;1.10;;;;;;;8.15;72.45;99376.66;5010973;28;20711;-69
2021/03/28 03:55:04;;;;;;;4.03;1.17;;;;;;;8.05;73.07;99367.06;5011501;28;20663;-68
2021/03/28 03:57:40;;;;;;;3.40;0.90;;;;;;;7.95;74.03;99377.78;5012016;28;20213;-69
2021/03/28 04:00:21;;;;;;;6.73;1.87;;;;;;;7.96;73.78;99378.63;5005528;28;20240;-69
2021/03/28 04:02:54;;;;;;;9.13;1.33;;;;;;;7.87;74.54;99369.72;5009283;28;20229;-69
2021/03/28 04:05:48;;;;;;;4.47;1.17;;;;;;;7.87;74.63;99379.53;5009970;28;20221;-69
2021/03/28 04:08:40;;;;;;;5.67;1.20;;;;;;;7.82;75.06;99371.19;5012893;28;20261;-69
2021/03/28 04:11:22;;;;;;;2.67;1.03;;;;;;;7.78;75.66;99375.97;5013055;28;20255;-69
2021/03/28 04:13:59;;;;;;;3.43;1.30;;;;;;;7.78;75.69;99377.78;5014271;28;20232;-69
2021/03/28 04:16:37;;;;;;;2.57;1.00;;;;;;;7.65;76.65;99378.13;5014317;28;20213;-69
2021/03/28 04:19:23;;;;;;;4.57;1.00;;;;;;;7.63;77.73;99376.59;5013130;28;20690;-69
2021/03/28 04:22:05;;;;;;;5.80;1.30;;;;;;;7.57;77.63;99380.69;5012604;28;20235;-69
2021/03/28 04:24:39;;;;;;;5.17;1.57;;;;;;;7.57;77.77;99383.34;5013688;28;20329;-69
2021/03/28 04:27:20;;;;;;;4.47;1.23;;;;;;;7.53;78.14;99381.13;5014341;28;20238;-69
2021/03/28 04:29:48;;;;;;;4.07;1.20;;;;;;;7.46;78.37;99388.03;5014195;28;20208;-69
2021/03/28 04:32:42;;;;;;;5.10;0.97;;;;;;;7.54;77.86;99393.44;5014255;28;20278;-69
2021/03/28 04:35:44;;;;;;;5.17;1.20;;;;;;;7.49;78.53;99387.72;5009733;28;20258;-69
2021/03/28 04:38:22;;;;;;;3.40;1.07;;;;;;;7.36;79.53;99387.25;4965437;28;20291;-69
2021/03/28 04:41:13;;;;;;;4.83;1.30;;;;;;;7.52;78.55;99380.28;5012139;28;20230;-68
2021/03/28 04:44:15;;;;;;;2.93;1.00;;;;;;;7.48;78.56;99378.94;5013116;28;20583;-69
2021/03/28 04:47:14;;;;;;;8.00;1.23;;;;;;;7.40;79.33;99380.63;5013793;28;20211;-68
2021/03/28 04:49:59;;;;;;;5.00;1.77;;;;;;;7.42;78.95;99379.50;5010593;28;20214;-69
2021/03/28 04:52:55;;;;;;;5.33;1.80;;;;;;;7.36;79.91;99382.75;5010441;28;20289;-68
2021/03/28 04:56:08;;;;;;;5.10;1.10;;;;;;;7.29;80.13;99389.66;5013655;28;20684;-69
2021/03/28 04:59:08;;;;;;;3.60;1.40;;;;;;;7.19;80.95;99388.00;5014123;28;20200;-69
2021/03/28 05:01:56;;;;;;;4.10;0.97;;;;;;;7.15;81.88;99386.66;5015809;28;20580;-69
2021/03/28 05:04:55;;;;;;;2.70;1.17;;;;;;;7.01;84.08;99385.28;5013024;28;20210;-69
2021/03/28 05:07:48;;;;;;;4.73;1.23;;;;;;;6.98;85.16;99388.25;5009774;28;20691;-69
2021/03/28 05:10:32;;;;;;;4.00;1.27;;;;;;;6.77;88.00;99390.25;5016239;28;20216;-68
2021/03/28 05:13:54;;;;;;;8.83;1.27;;;;;;;6.85;87.52;99387.72;5000161;28;20255;-69
2021/03/28 05:16:47;;;;;;;3.20;0.80;;;;;;;6.76;88.63;99395.72;4933000;29;20207;-68
2021/03/28 05:20:01;;;;;;;2.97;0.90;;;;;;;6.80;87.88;99395.25;4934227;29;20711;-68
2021/03/28 05:23:06;;;;;;;2.23;1.13;;;;;;;6.73;90.08;99399.47;5006186;28;20240;-69
2021/03/28 05:25:43;;;;;;;2.57;1.10;;;;;;;6.72;90.52;99395.16;5012821;28;20322;-69
2021/03/28 05:28:46;;;;;;;4.57;1.57;;;;;;;6.80;91.84;99397.91;5016254;28;20208;-69
2021/03/28 05:31:41;;;;;;;2.97;1.27;;;;;;;6.88;91.70;99384.78;5012320;28;20742;-68
2021/03/28 05:34:49;;;;;;;3.73;1.10;;;;;;;6.89;92.64;99393.56;5012855;28;20207;-69
2021/03/28 05:37:52;;;;;;;4.53;1.23;;;;;;;6.94;92.73;99405.44;5013461;28;20216;-68
2021/03/28 05:40:53;;;;;;;6.83;1.57;;;;;;;6.89;93.19;99406.81;5019612;28;20235;-68
2021/03/28 05:43:50;;;;;;;4.27;1.03;;;;;;;7.00;92.01;99399.53;4985431;28;20224;-69
2021/03/28 05:46:53;;;;;;;3.10;1.10;;;;;;;7.20;89.61;99408.28;5009114;28;20231;-69
2021/03/28 05:49:33;;;;;;;4.73;1.47;;;;;;;7.24;88.01;99418.47;5010160;28;20205;-69
2021/03/28 05:52:34;;;;;;;3.87;1.30;;;;;;;7.19;90.26;99407.44;5011506;28;20706;-69
2021/03/28 05:55:32;;;;;;;5.87;1.27;;;;;;;7.31;90.55;99411.56;5012982;28;20224;-69
2021/03/28 05:58:24;;;;;;;4.47;1.10;;;;;;;7.43;88.06;99417.53;5011912;28;20268;-69
2021/03/28 06:01:13;;;;;;;2.77;1.30;;;;;;;7.42;86.59;99429.16;5009422;28;20236;-69
2021/03/28 06:04:44;;;;;;;4.20;1.20;;;;;;;7.52;85.53;99432.59;5013909;28;20226;-69
2021/03/28 06:08:02;;;;;;;6.43;1.70;;;;;;;7.57;85.15;99433.81;5012643;28;20270;-68
2021/03/28 06:11:13;;;;;;;3.53;1.10;;;;;;;7.66;84.05;99424.97;5009151;28;20216;-69
2021/03/28 06:14:04;;;;;;;2.07;1.03;;;;;;;7.68;82.62;99430.97;5014082;28;20243;-69
2021/03/28 06:16:54;;;;;;;4.00;1.20;;;;;;;7.86;81.83;99431.84;5009487;28;20205;-69
2021/03/28 06:19:56;;;;;;;7.53;1.20;;;;;;;7.92;80.74;99425.91;5014906;28;20217;-69
2021/03/28 06:23:03;;;;;;;3.37;1.00;;;;;;;8.04;79.72;99434.53;5011755;28;20221;-69
2021/03/28 06:26:00;;;;;;;7.33;1.20;;;;;;;8.39;75.81;99435.44;5013690;28;20218;-69
2021/03/28 06:29:12;;;;;;;6.20;1.10;;;;;;;8.77;72.48;99456.38;5016401;28;20229;-68
2021/03/28 06:32:44;;;;;;;4.63;1.17;;;;;;;8.97;70.31;99462.31;4962526;28;20210;-68
2021/03/28 06:35:39;;;;;;;6.93;1.70;;;;;;;9.23;68.19;99466.69;4950966;28;20262;-70
2021/03/28 06:38:39;;;;;;;5.80;1.27;;;;;;;9.63;65.17;99466.91;5010819;28;20215;-70
2021/03/28 06:41:24;;;;;;;4.77;1.20;;;;;;;9.97;62.96;99469.53;5013372;28;20235;-71
2021/03/28 06:44:37;;;;;;;6.47;1.40;;;;;;;10.20;60.72;99476.81;5008198;28;20276;-72
2021/03/28 06:47:31;;;;;;;2.33;0.80;;;;;;;10.50;59.59;99473.53;5015816;28;20578;-72
2021/03/28 06:50:15;;;;;;;6.40;1.40;;;;;;;10.63;58.08;99470.38;5020705;28;20210;-71
2021/03/28 06:53:16;;;;;;;3.03;0.97;;;;;;;10.60;59.02;99484.91;5009058;28;20227;-71
2021/03/28 06:55:44;;;;;;;5.90;1.40;;;;;;;10.26;59.90;99473.47;4999127;28;20615;-70
2021/03/28 06:58:31;;;;;;;5.77;1.00;;;;;;;10.54;57.56;99476.72;5011836;28;20207;-71
2021/03/28 07:01:23;;;;;;;2.47;1.10;;;;;;;10.70;57.36;99477.56;5010527;28;20234;-70
2021/03/28 07:04:20;;;;;;;5.30;1.60;;;;;;;10.97;56.54;99487.09;4977706;28;20310;-71
2021/03/28 07:06:54;;;;;;;3.43;1.20;;;;;;;11.07;55.85;99485.91;5010829;28;20203;-70
2021/03/28 07:09:47;;;;;;;7.50;1.47;;;;;;;10.97;55.78;99479.91;5014794;28;20211;-69
2021/03/28 07:12:24;;;;;;;2.10;1.10;;;;;;;11.10;56.20;99466.88;5009452;28;20293;-70
2021/03/28 07:15:20;;;;;;;7.10;1.40;;;;;;;11.53;54.50;99473.66;5009523;28;20210;-71
2021/03/28 07:18:13;;;;;;;4.00;1.30;;;;;;;11.32;55.85;99468.03;5011204;28;20214;-71
2021/03/28 07:21:07;;;;;;;3.30;1.30;;;;;;;11.60;53.87;99471.16;5006095;28;20227;-70
2021/03/28 07:23:55;;;;;;;4.37;1.40;;;;;;;11.75;52.20;99472.13;4996154;28;20235;-71
2021/03/28 07:26:55;;;;;;;4.90;1.50;;;;;;;11.81;51.63;99482.13;5012716;28;20208;-70
2021/03/28 07:30:10;;;;;;;7.73;1.50;;;;;;;12.02;50.52;99499.25;5011408;28;20234;-70
2021/03/28 07:33:05;;;;;;;3.10;1.13;;;;;;;12.21;50.79;99498.81;5011081;28;20220;-71
2021/03/28 07:35:56;;;;;;;3.07;1.20;;;;;;;12.46;49.64;99510.25;5010990;28;20208;-69
2021/03/28 07:39:10;;;;;;;4.63;1.33;;;;;;;12.59;48.62;99512.16;5007286;28;20214;-72
2021/03/28 07:42:13;;;;;;;4.80;1.27;;;;;;;12.42;49.22;99515.13;4982387;28;20542;-75
2021/03/28 07:45:11;;;;;;;7.47;1.43;;;;;;;12.92;47.08;99522.66;4973772;28;20213;-71
2021/03/28 07:48:02;;;;;;;4.17;1.33;;;;;;;13.00;46.43;99511.91;5011087;28;20221;-72
2021/03/28 07:50:54;;;;;;;4.18;1.20;;;;;;;13.43;45.37;99516.56;5010655;28;20493;-72
2021/03/28 07:53:59;;;;;;;3.50;1.40;;;;;;;12.54;47.54;99519.06;5000551;28;20719;-71
2021/03/28 07:56:47;;;;;;;4.63;1.20;;;;;;;12.88;47.71;99513.31;4997661;28;20201;-73
2021/03/28 07:59:19;;;;;;;4.23;1.10;;;;;;;13.31;45.91;99523.34;5010969;28;20541;-73
2021/03/28 08:01:54;;;;;;;3.30;1.00;;;;;;;13.63;45.37;99526.56;5010411;28;21719;-73
2021/03/28 08:04:53;;;;;;;3.43;1.03;;;;;;;13.79;44.50;99530.94;5010297;28;20260;-73
2021/03/28 08:07:50;;;;;;;5.27;1.10;;;;;;;13.17;46.01;99542.94;5010584;28;20219;-71
2021/03/28 08:10:47;;;;;;;2.43;1.30;;;;;;;13.41;45.43;99554.28;5013664;28;20218;-72
2021/03/28 08:13:59;;;;;;;6.40;1.40;;;;;;;13.22;45.70;99560.13;5009037;28;20598;-70
2021/03/28 08:16:56;;;;;;;4.40;1.30;;;;;;;13.38;46.31;99557.31;4957792;28;20204;-70
2021/03/28 08:19:38;;;;;;;5.30;1.40;;;;;;;13.47;45.87;99568.81;5006144;28;20213;-70
2021/03/28 08:22:11;;;;;;;4.70;1.10;;;;;;;13.16;46.13;99563.53;5009403;28;20591;-70
2021/03/28 08:25:16;;;;;;;3.57;1.43;;;;;;;12.78;48.37;99559.91;5009963;28;20213;-71
2021/03/28 08:28:19;;;;;;;2.93;1.30;;;;;;;12.52;48.84;99562.09;5007312;28;20213;-70
2021/03/28 08:31:01;;;;;;;4.37;1.30;;;;;;;12.84;48.38;99569.09;4987037;28;20203;-76
2021/03/28 08:34:02;;;;;;;4.80;1.30;;;;;;;12.78;48.28;99567.94;5008875;28;20227;-73
2021/03/28 08:36:52;;;;;;;2.50;1.07;;;;;;;13.38;47.03;99577.94;4994776;28;20262;-73
2021/03/28 08:39:32;;;;;;;7.57;1.33;;;;;;;13.83;45.35;99573.31;5008996;28;20218;-69
2021/03/28 08:42:17;;;;;;;5.27;1.63;;;;;;;14.12;44.28;99576.03;5009301;28;20243;-71
2021/03/28 08:45:01;;;;;;;2.33;1.00;;;;;;;13.56;45.72;99573.94;5010601;28;20219;-70
2021/03/28 08:47:52;;;;;;;6.87;1.37;;;;;;;13.97;44.60;99574.34;5007481;28;20269;-71
2021/03/28 08:50:29;;;;;;;7.20;1.47;;;;;;;13.85;43.98;99584.72;5014985;28;20632;-72
2021/03/28 08:53:28;;;;;;;9.67;1.60;;;;;;;13.73;44.08;99580.78;5011029;28;20223;-73
2021/03/28 08:56:33;;;;;;;3.43;1.20;;;;;;;13.44;43.82;99585.28;5012015;28;20216;-71
2021/03/28 08:59:11;;;;;;;8.50;1.10;;;;;;;14.04;42.50;99576.09;5014250;28;20203;-72
2021/03/28 09:01:49;;;;;;;3.20;0.97;;;;;;;13.72;42.33;99586.38;5013706;28;20218;-72
2021/03/28 09:04:35;;;;;;;4.67;0.80;;;;;;;14.15;41.56;99581.03;5010722;28;20256;-73
2021/03/28 09:07:24;;;;;;;2.70;0.80;;;;;;;14.41;40.94;99585.94;5012137;28;20221;-73
2021/03/28 09:10:05;;;;;;;3.33;1.20;;;;;;;14.78;40.84;99577.72;5001780;28;20216;-72
2021/03/28 09:12:54;;;;;;;5.70;1.20;;;;;;;14.70;40.97;99575.97;5014384;28;20308;-73
2021/03/28 09:15:38;;;;;;;10.63;1.63;;;;;;;14.42;40.77;99566.13;5008297;28;20233;-70
2021/03/28 09:18:17;;;;;;;1.93;1.10;;;;;;;14.76;37.84;99579.78;5009247;28;20266;-71
2021/03/28 09:20:54;;;;;;;2.80;1.00;;;;;;;14.76;37.53;99587.84;5010387;28;20285;-71
2021/03/28 09:23:40;;;;;;;3.37;1.10;;;;;;;14.94;35.48;99586.38;5013473;28;20313;-70
2021/03/28 09:26:29;;;;;;;4.83;1.37;;;;;;;15.17;35.49;99578.16;5016200;28;20213;-71
2021/03/28 09:29:33;;;;;;;3.63;0.93;;;;;;;15.25;32.75;99597.69;5018770;28;20202;-71
2021/03/28 09:32:22;;;;;;;3.30;0.90;;;;;;;14.96;33.50;99594.28;5016806;28;20240;-73
2021/03/28 09:35:01;;;;;;;3.13;1.50;;;;;;;15.72;33.09;99583.66;5014755;28;20293;-71
2021/03/28 09:37:36;;;;;;;2.80;1.50;;;;;;;15.31;32.81;99596.94;5015167;28;20233;-70
2021/03/28 09:40:23;;;;;;;2.83;0.90;;;;;;;15.33;33.40;99594.03;5014012;28;20206;-71
2021/03/28 09:43:25;;;;;;;2.93;1.10;;;;;;;15.35;33.19;99598.22;5012901;28;20294;-70
2021/03/28 09:46:37;;;;;;;4.10;0.90;;;;;;;15.53;32.87;99593.22;5011970;28;20209;-69
2021/03/28 09:49:33;;;;;;;2.63;1.10;;;;;;;14.61;33.02;99585.19;4999084;28;20236;-70
2021/03/28 09:52:32;;;;;;;2.37;1.00;;;;;;;15.12;35.67;99584.13;5013157;28;20228;-71
2021/03/28 09:55:19;;;;;;;2.97;1.00;;;;;;;15.35;37.34;99560.56;5010195;28;20205;-71
2021/03/28 09:58:02;;;;;;;3.03;1.10;;;;;;;15.46;34.50;99567.28;5004817;28;20203;-70
2021/03/28 10:00:47;;;;;;;3.77;1.10;;;;;;;14.87;35.22;99569.38;5011892;28;20209;-71
2021/03/28 10:03:19;;;;;;;3.27;1.27;;;;;;;14.50;36.06;99556.13;5006484;28;20240;-73
2021/03/28 10:05:47;;;;;;;3.20;1.00;;;;;;;13.84;37.34;99547.31;5010304;28;20209;-70
2021/03/28 10:08:15;;;;;;;4.80;1.10;;;;;;;14.50;36.84;99539.16;5013871;28;21618;-72
2021/03/28 10:11:02;;;;;;;2.53;1.00;;;;;;;15.25;35.96;99535.81;5013634;28;20282;-72
2021/03/28 10:13:59;;;;;;;3.97;1.33;;;;;;;14.70;35.74;99546.41;5007550;28;20382;-74
2021/03/28 10:16:31;;;;;;;4.40;1.20;;;;;;;14.46;35.50;99551.28;5017170;28;20564;-73
2021/03/28 10:19:09;;;;;;;4.20;1.10;;;;;;;15.67;32.62;99562.72;5011796;28;20602;-77
2021/03/28 10:22:05;;;;;;;7.57;3.30;;;;;;;15.76;32.20;99568.78;5006292;28;20320;-72
2021/03/28 10:24:50;;;;;;;2.13;1.03;;;;;;;16.14;32.46;99556.59;5012108;28;20548;-71
2021/03/28 10:27:34;;;;;;;3.93;1.20;;;;;;;15.64;31.99;99562.25;5006782;28;20211;-72
2021/03/28 10:30:09;;;;;;;3.77;1.00;;;;;;;16.05;31.83;99555.09;5013104;28;20207;-71
2021/03/28 10:32:49;;;;;;;3.83;1.10;;;;;;;15.78;32.27;99547.88;5013249;28;20215;-70
2021/03/28 10:35:52;;;;;;;3.87;1.20;;;;;;;15.47;33.20;99548.28;5002137;28;20686;-70
2021/03/28 10:38:47;;;;;;;4.53;1.13;;;;;;;16.25;32.46;99542.56;5005221;28;20228;-71
2021/03/28 10:41:36;;;;;;;5.23;1.47;;;;;;;16.27;32.83;99546.72;5004365;28;20233;-69
2021/03/28 10:44:21;;;;;;;3.63;1.50;;;;;;;16.49;31.21;99544.78;5010966;28;20235;-72
2021/03/28 10:47:34;;;;;;;2.90;1.00;;;;;;;16.37;32.02;99538.28;5012667;28;20193;-74
2021/03/28 10:50:46;;;;;;;5.60;1.27;;;;;;;16.13;31.95;99538.78;5011837;28;20213;-72
2021/03/28 10:53:42;;;;;;;3.20;1.20;;;;;;;16.42;32.37;99533.97;5012210;28;20233;-75
2021/03/28 10:56:55;;;;;;;3.90;1.20;;;;;;;16.31;31.85;99525.63;5012730;28;20660;-71
2021/03/28 11:00:01;;;;;;;2.50;1.10;;;;;;;15.23;33.20;99521.75;5005960;28;20215;-72
2021/03/28 11:03:06;;;;;;;7.50;1.47;;;;;;;16.07;32.31;99520.72;5007277;28;20235;-71
2021/03/28 11:06:07;;;;;;;3.03;1.37;;;;;;;16.24;32.01;99516.66;5007797;28;20699;-75
2021/03/28 11:08:45;;;;;;;2.53;1.00;;;;;;;15.88;31.92;99511.50;5010385;28;20199;-70
2021/03/28 11:11:50;;;;;;;4.27;1.10;;;;;;;16.47;31.45;99509.94;5009173;28;20200;-71
2021/03/28 11:14:39;;;;;;;2.60;1.07;;;;;;;16.14;31.77;99511.63;5008203;28;20204;-72
2021/03/28 11:17:39;;;;;;;2.97;1.07;;;;;;;16.46;32.05;99510.97;5011435;28;20221;-73
2021/03/28 11:20:26;;;;;;;5.70;1.90;;;;;;;16.42;31.06;99507.00;4954711;28;20708;-75
2021/03/28 11:23:10;;;;;;;2.40;1.10;;;;;;;16.40;31.27;99502.84;5016158;28;20223;-81
2021/03/28 11:26:08;;;;;;;4.73;1.50;;;;;;;15.98;31.75;99493.13;5013823;28;20254;-82
2021/03/28 11:28:57;;;;;;;3.77;1.03;;;;;;;16.74;30.48;99489.28;5004362;28;20217;-80
2021/03/28 11:31:36;;;;;;;3.90;1.43;;;;;;;17.09;30.96;99493.50;5012527;28;20684;-80
2021/03/28 11:34:15;;;;;;;3.03;1.20;;;;;;;17.02;31.22;99496.19;5015783;28;20222;-78
2021/03/28 11:36:56;;;;;;;2.57;1.20;;;;;;;16.39;32.15;99479.63;5012240;28;20677;-76
2021/03/28 11:39:27;;;;;;;2.03;0.80;;;;;;;16.95;30.97;99486.41;5014361;28;20286;-79
2021/03/28 11:42:25;;;;;;;2.63;1.40;;;;;;;16.93;30.67;99480.41;5013300;28;20245;-77
2021/03/28 11:45:32;;;;;;;5.83;2.20;;;;;;;16.96;31.23;99480.81;5018603;28;20207;-80
2021/03/28 11:48:00;;;;;;;6.83;1.60;;;;;;;17.05;31.29;99481.44;4992603;28;20207;-76
2021/03/28 11:50:40;;;;;;;3.23;1.40;;;;;;;17.35;31.05;99478.16;5012397;28;20249;-77
2021/03/28 11:53:18;;;;;;;3.60;1.20;;;;;;;16.52;31.96;99472.44;5004441;28;20238;-77
2021/03/28 11:55:48;;;;;;;2.80;1.50;;;;;;;17.06;31.37;99473.16;5008679;28;20266;-73
2021/03/28 11:58:27;;;;;;;3.27;1.37;;;;;;;17.21;30.09;99483.75;4999019;28;20203;-70
2021/03/28 12:00:55;;;;;;;5.57;1.53;;;;;;;17.24;30.76;99461.75;5010491;28;20272;-75
2021/03/28 12:03:34;;;;;;;3.80;1.23;;;;;;;17.36;30.68;99451.97;5011238;28;20227;-70
2021/03/28 12:06:06;;;;;;;3.50;1.30;;;;;;;17.77;30.11;99455.25;5006666;28;20203;-73
2021/03/28 12:08:35;;;;;;;6.93;1.50;;;;;;;16.48;31.40;99454.19;5011172;28;20289;-72
2021/03/28 12:11:42;;;;;;;4.20;1.10;;;;;;;17.43;30.53;99456.38;5003981;28;20926;-71
2021/03/28 12:14:30;;;;;;;6.60;1.30;;;;;;;17.43;29.54;99444.75;5007658;28;20672;-74
2021/03/28 12:17:23;;;;;;;2.93;1.10;;;;;;;17.49;29.29;99441.22;5012164;28;20246;-73
2021/03/28 12:20:20;;;;;;;3.37;1.40;;;;;;;17.61;28.76;99434.13;5009144;28;20683;-70
2021/03/28 12:22:51;;;;;;;5.40;1.40;;;;;;;17.69;29.21;99432.00;4971531;28;20241;-73
2021/03/28 12:25:24;;;;;;;6.63;1.73;;;;;;;18.09;29.15;99438.16;5013859;28;20394;-71
2021/03/28 12:28:17;;;;;;;5.17;1.27;;;;;;;17.77;29.01;99441.75;5010790;28;20203;-71
2021/03/28 12:30:44;;;;;;;4.03;1.17;;;;;;;18.22;29.12;99438.91;5013507;28;20234;-72
2021/03/28 12:33:13;;;;;;;3.50;1.27;;;;;;;17.43;29.08;99444.75;5015782;28;20228;-72
2021/03/28 12:35:59;;;;;;;4.27;1.30;;;;;;;16.85;30.04;99437.44;5015475;28;20694;-71
2021/03/28 12:39:09;;;;;;;1.87;1.20;;;;;;;17.32;30.02;99448.06;5015698;28;20246;-71
2021/03/28 12:41:38;;;;;;;3.70;1.33;;;;;;;16.73;30.26;99433.72;5003765;28;20219;-71
2021/03/28 12:44:32;;;;;;;2.27;1.17;;;;;;;17.65;29.75;99441.59;5013267;28;20207;-71
2021/03/28 12:47:01;;;;;;;2.30;0.97;;;;;;;17.54;29.76;99427.91;5015113;28;20295;-71
2021/03/28 12:49:31;;;;;;;2.73;1.47;;;;;;;18.06;29.01;99417.78;5015012;28;20223;-73
2021/03/28 12:52:16;;;;;;;5.53;1.37;;;;;;;18.31;28.66;99425.97;5014254;28;20202;-72
2021/03/28 12:55:04;;;;;;;4.60;1.30;;;;;;;18.03;29.49;99410.09;5014235;28;20254;-79
2021/03/28 12:57:34;;;;;;;5.03;1.63;;;;;;;18.05;29.43;99396.38;5007045;28;20263;-72
2021/03/28 13:00:04;;;;;;;7.00;1.33;;;;;;;18.30;29.15;99394.59;5015032;28;20211;-72
2021/03/28 13:02:34;;;;;;;5.10;1.40;;;;;;;18.36;29.24;99405.41;5014806;28;20622;-72
2021/03/28 13:05:03;;;;;;;2.87;0.97;;;;;;;17.84;29.04;99399.38;5014480;28;20195;-72
2021/03/28 13:07:38;;;;;;;1.47;1.10;;;;;;;17.86;29.26;99402.69;5014152;28;20199;-71
2021/03/28 13:10:14;;;;;;;3.50;1.07;;;;;;;17.78;30.06;99397.53;5014285;28;20208;-71